Time;durP1;ratioP1;P1;durP2;ratioP2;P2;SDS_P1;SDS_P2;PMS_P1;PMS_P2;Temp;Humidity;BMP_temperature;BMP_pressure;BME280_temperature;BME280_humidity;BME280_pressure;Samples;Min_cycle;Max_cycle;Signal;HPM_P1;HPM_P2
2023/01/13 03:02:18;;;;;;;8.50;7.90;;;10.10;99.90;;;;;;5252370;23;20233;-78
2023/01/13 03:04:54;;;;;;;8.73;8.00;;;10.10;99.90;;;;;;4982801;28;20198;-78
2023/01/13 03:07:52;;;;;;;8.07;7.67;;;10.10;99.90;;;;;;4984849;28;20214;-78
2023/01/13 03:10:35;;;;;;;8.27;7.77;;;10.00;99.90;;;;;;4986284;28;20198;-79
2023/01/13 03:13:13;;;;;;;8.37;7.70;;;10.00;99.90;;;;;;4963445;28;20202;-79
2023/01/13 03:15:47;;;;;;;8.10;7.70;;;10.00;99.90;;;;;;4961474;28;20199;-79
2023/01/13 03:18:25;;;;;;;8.50;8.00;;;10.00;99.90;;;;;;4962093;28;20225;-79
2023/01/13 03:21:02;;;;;;;8.30;7.70;;;10.00;99.90;;;;;;4964722;28;20218;-78
2023/01/13 03:23:35;;;;;;;8.60;8.00;;;10.00;99.90;;;;;;4955829;28;20270;-78
2023/01/13 03:26:06;;;;;;;8.30;7.80;;;10.00;99.90;;;;;;4964898;28;20194;-78
2023/01/13 03:28:36;;;;;;;8.40;7.90;;;10.00;99.90;;;;;;4959981;28;20202;-79
2023/01/13 03:31:09;;;;;;;8.20;7.70;;;10.00;99.90;;;;;;4966935;28;20269;-78
2023/01/13 03:33:44;;;;;;;8.20;7.70;;;10.00;99.90;;;;;;4964025;28;20201;-78
2023/01/13 03:36:14;;;;;;;8.10;7.60;;;10.00;99.90;;;;;;4960242;28;20629;-78
2023/01/13 03:38:44;;;;;;;8.00;7.50;;;10.00;99.90;;;;;;4961838;28;20699;-78
2023/01/13 03:41:17;;;;;;;8.40;7.77;;;10.00;99.90;;;;;;4963397;28;20777;-79
2023/01/13 03:46:42;;;;;;;8.10;7.70;;;10.00;99.90;;;;;;4962911;28;20202;-78
2023/01/13 03:49:16;;;;;;;8.40;7.90;;;10.00;99.90;;;;;;4964132;28;20690;-78
2023/01/13 03:51:48;;;;;;;8.40;7.90;;;10.00;99.90;;;;;;4951492;28;20223;-80
2023/01/13 03:54:19;;;;;;;8.40;7.90;;;10.00;99.90;;;;;;4958856;28;20210;-80
2023/01/13 03:56:51;;;;;;;8.53;7.90;;;10.00;99.90;;;;;;4960564;28;20750;-78
2023/01/13 03:59:22;;;;;;;8.33;7.83;;;10.00;99.90;;;;;;4949501;28;20222;-78
2023/01/13 04:01:54;;;;;;;8.60;8.10;;;10.00;99.90;;;;;;4954901;28;20227;-78
2023/01/13 04:04:28;;;;;;;8.70;8.20;;;10.00;99.90;;;;;;4961410;28;20194;-78
2023/01/13 04:07:00;;;;;;;9.07;8.47;;;10.00;99.90;;;;;;4943876;28;20278;-78
2023/01/13 04:09:33;;;;;;;9.13;8.53;;;10.00;99.90;;;;;;4952377;28;20245;-78
2023/01/13 04:12:06;;;;;;;8.70;8.20;;;9.90;99.90;;;;;;4949358;28;20591;-78
2023/01/13 04:14:34;;;;;;;8.77;8.27;;;9.90;99.90;;;;;;4955119;28;20198;-78
2023/01/13 04:17:01;;;;;;;8.70;8.20;;;10.00;99.90;;;;;;4954253;28;20199;-78
2023/01/13 04:19:30;;;;;;;8.13;7.73;;;10.00;99.90;;;;;;4952364;28;20215;-82
2023/01/13 04:21:57;;;;;;;8.60;8.10;;;10.00;99.90;;;;;;4962858;28;20276;-83
2023/01/13 04:24:24;;;;;;;8.80;8.20;;;10.00;99.90;;;;;;4963871;28;20199;-82
2023/01/13 04:26:51;;;;;;;8.90;8.20;;;10.00;99.90;;;;;;4965492;28;20207;-82
2023/01/13 04:29:18;;;;;;;8.53;8.03;;;10.00;99.90;;;;;;4949037;28;20226;-81
2023/01/13 04:31:45;;;;;;;8.80;8.20;;;10.00;99.90;;;;;;4955124;29;20230;-82
2023/01/13 04:34:13;;;;;;;8.87;8.27;;;10.00;99.90;;;;;;4956930;28;20214;-82
2023/01/13 04:36:41;;;;;;;8.50;8.10;;;10.10;99.90;;;;;;4966659;28;20254;-81
2023/01/13 04:39:08;;;;;;;8.50;8.00;;;10.00;99.90;;;;;;4965468;28;20226;-82
2023/01/13 04:44:15;;;;;;;8.50;8.10;;;10.10;99.90;;;;;;4963320;28;20223;-78
2023/01/13 04:46:42;;;;;;;8.80;8.30;;;10.10;99.90;;;;;;4961963;28;20617;-79
2023/01/13 04:49:09;;;;;;;8.90;8.27;;;10.10;99.90;;;;;;4963816;28;20265;-79
2023/01/13 04:51:36;;;;;;;8.60;8.10;;;10.10;99.90;;;;;;4964207;28;20718;-79
2023/01/13 04:54:04;;;;;;;8.50;8.00;;;10.10;99.90;;;;;;4965585;28;20200;-78
2023/01/13 04:56:31;;;;;;;8.67;8.17;;;10.10;99.90;;;;;;4964697;28;20198;-78
2023/01/13 04:58:58;;;;;;;8.40;7.90;;;10.20;99.90;;;;;;4963258;28;20210;-77
2023/01/13 05:01:24;;;;;;;9.27;8.57;;;10.20;99.90;;;;;;4964949;28;20221;-78
2023/01/13 05:03:51;;;;;;;8.50;8.00;;;10.20;99.90;;;;;;4951335;28;20266;-77
2023/01/13 05:06:18;;;;;;;9.27;8.77;;;10.20;99.90;;;;;;4947539;28;20216;-78
2023/01/13 05:08:45;;;;;;;9.07;8.57;;;10.20;99.90;;;;;;4949319;28;20683;-78
2023/01/13 05:19:22;;;;;;;8.30;7.90;;;10.20;99.90;;;;;;4953383;28;20229;-77
2023/01/13 05:27:18;;;;;;;8.80;8.30;;;10.20;99.90;;;;;;4951276;28;20194;-77
2023/01/13 05:29:45;;;;;;;8.80;8.30;;;10.20;99.90;;;;;;4959343;28;20198;-78
2023/01/13 05:32:12;;;;;;;9.00;8.40;;;10.20;99.90;;;;;;4962927;28;20223;-78
2023/01/13 05:34:39;;;;;;;8.73;8.27;;;10.10;99.90;;;;;;4960908;28;20253;-78
2023/01/13 05:37:07;;;;;;;9.10;8.60;;;10.20;99.90;;;;;;4958232;28;20253;-78
2023/01/13 05:43:18;;;;;;;9.30;8.80;;;10.20;99.90;;;;;;4960623;28;20219;-79
2023/01/13 05:45:07;;;;;;;9.60;9.00;;;10.20;99.90;;;;;;4961726;28;20676;-81
2023/01/13 05:47:34;;;;;;;9.70;9.00;;;10.20;99.90;;;;;;4967264;28;20654;-79
2023/01/13 05:50:00;;;;;;;9.30;8.80;;;10.10;99.90;;;;;;4965938;28;20195;-78
2023/01/13 05:52:27;;;;;;;9.03;8.53;;;10.20;99.90;;;;;;4963348;28;20225;-78
2023/01/13 05:54:54;;;;;;;9.33;8.70;;;10.20;99.90;;;;;;4964357;28;20203;-79
2023/01/13 05:57:22;;;;;;;9.07;8.53;;;10.20;99.90;;;;;;4962656;28;20285;-81
2023/01/13 05:59:49;;;;;;;9.20;8.70;;;10.20;99.90;;;;;;4947649;28;20750;-78
2023/01/13 06:02:16;;;;;;;10.10;9.40;;;10.20;99.90;;;;;;4953075;28;20230;-78
2023/01/13 06:04:43;;;;;;;9.07;8.60;;;10.20;99.90;;;;;;4954464;28;20282;-78
2023/01/13 06:07:09;;;;;;;9.47;8.87;;;10.20;99.90;;;;;;4959609;28;20206;-78
2023/01/13 06:09:36;;;;;;;9.07;8.57;;;10.20;99.90;;;;;;4957963;28;20223;-78
2023/01/13 06:12:03;;;;;;;9.00;8.50;;;10.20;99.90;;;;;;4956019;28;20219;-78
2023/01/13 06:14:38;;;;;;;9.03;8.43;;;10.20;99.90;;;;;;4956547;28;20253;-81
2023/01/13 06:17:07;;;;;;;8.53;8.13;;;10.20;99.90;;;;;;4969291;28;20253;-81
2023/01/13 06:19:34;;;;;;;8.80;8.40;;;10.20;99.90;;;;;;4966855;28;20229;-80
2023/01/13 06:22:08;;;;;;;9.00;8.40;;;10.20;99.90;;;;;;4965121;28;20218;-80
2023/01/13 06:24:36;;;;;;;8.67;8.27;;;10.20;99.90;;;;;;4970712;28;20701;-80
2023/01/13 06:27:04;;;;;;;8.97;8.47;;;10.20;99.90;;;;;;4961612;28;20265;-80
2023/01/13 06:29:32;;;;;;;9.33;8.83;;;10.20;99.90;;;;;;4966920;28;20194;-78
2023/01/13 06:32:01;;;;;;;9.40;8.90;;;10.20;99.90;;;;;;4968413;28;20218;-82
2023/01/13 06:34:28;;;;;;;9.27;8.73;;;10.20;99.90;;;;;;4956713;28;20197;-84
2023/01/13 06:36:55;;;;;;;9.67;9.07;;;10.20;99.90;;;;;;4964711;28;20202;-81
2023/01/13 06:39:25;;;;;;;9.40;8.90;;;10.20;99.90;;;;;;4954437;28;20741;-77
2023/01/13 06:44:40;;;;;;;8.93;8.43;;;10.20;99.90;;;;;;4961602;28;20603;-79
2023/01/13 06:47:07;;;;;;;9.20;8.70;;;10.20;99.90;;;;;;4966509;28;20187;-78
2023/01/13 06:49:34;;;;;;;9.30;8.80;;;10.20;99.90;;;;;;4967423;28;20245;-81
2023/01/13 06:52:01;;;;;;;9.23;8.73;;;10.20;99.90;;;;;;4967366;28;20355;-81
2023/01/13 06:54:28;;;;;;;9.50;8.93;;;10.20;99.90;;;;;;4955793;28;20190;-78
2023/01/13 06:56:54;;;;;;;9.37;8.60;;;10.20;99.90;;;;;;4962681;28;20229;-78
2023/01/13 06:59:22;;;;;;;9.40;8.90;;;10.20;99.90;;;;;;4964473;28;20269;-79
2023/01/13 07:01:50;;;;;;;9.40;8.90;;;10.20;99.90;;;;;;4965937;28;20231;-78
2023/01/13 07:04:17;;;;;;;9.60;9.10;;;10.20;99.90;;;;;;4970085;28;20207;-78
2023/01/13 07:06:44;;;;;;;8.50;8.10;;;10.20;99.90;;;;;;4965722;28;20210;-78
2023/01/13 07:09:11;;;;;;;8.90;8.50;;;10.20;99.90;;;;;;4968545;28;20198;-79
2023/01/13 07:11:38;;;;;;;8.83;8.43;;;10.20;99.90;;;;;;4964426;28;20215;-79
2023/01/13 07:16:52;;;;;;;9.23;8.73;;;10.20;99.90;;;;;;4962901;28;20249;-78
2023/01/13 07:19:22;;;;;;;9.40;8.90;;;10.20;99.90;;;;;;4967177;28;20755;-80
2023/01/13 07:21:49;;;;;;;9.13;8.63;;;10.10;99.90;;;;;;4965953;28;20265;-78
2023/01/13 07:24:16;;;;;;;9.40;8.90;;;10.20;99.90;;;;;;4966557;28;20214;-80
2023/01/13 07:26:43;;;;;;;9.10;8.60;;;10.20;99.90;;;;;;4961728;28;20198;-82
2023/01/13 07:29:10;;;;;;;9.30;8.80;;;10.20;99.90;;;;;;4958583;28;20207;-79
2023/01/13 07:31:37;;;;;;;9.07;8.57;;;10.20;99.90;;;;;;4954492;28;20230;-77
2023/01/13 07:34:06;;;;;;;9.03;8.53;;;10.10;99.90;;;;;;4965761;28;20218;-78
2023/01/13 07:36:33;;;;;;;9.63;9.00;;;10.20;99.90;;;;;;4960889;28;20653;-78
2023/01/13 07:39:00;;;;;;;8.83;8.40;;;10.20;99.90;;;;;;4965860;28;20207;-78
2023/01/13 07:44:11;;;;;;;9.20;8.70;;;10.20;99.90;;;;;;4968831;28;20570;-80
2023/01/13 07:46:38;;;;;;;8.97;8.57;;;10.20;99.90;;;;;;4961972;28;20293;-78
2023/01/13 07:49:07;;;;;;;9.40;8.90;;;10.30;99.90;;;;;;4967781;28;20199;-81
2023/01/13 07:51:36;;;;;;;9.47;8.87;;;10.30;99.90;;;;;;4963532;28;20273;-82
2023/01/13 07:54:03;;;;;;;9.57;9.07;;;10.30;99.90;;;;;;4963460;28;20681;-82
2023/01/13 07:56:30;;;;;;;9.60;9.00;;;10.30;99.90;;;;;;4965384;28;20198;-83
2023/01/13 07:58:59;;;;;;;9.40;8.90;;;10.30;99.90;;;;;;4963074;28;20223;-80
2023/01/13 08:01:26;;;;;;;9.60;9.10;;;10.40;99.90;;;;;;4963246;28;20239;-80
2023/01/13 08:03:53;;;;;;;9.30;8.80;;;10.40;99.90;;;;;;4966783;28;20203;-81
2023/01/13 08:06:22;;;;;;;9.10;8.60;;;10.40;99.90;;;;;;4965158;28;20273;-80
2023/01/13 08:08:48;;;;;;;8.80;8.30;;;10.40;99.90;;;;;;4963389;28;20195;-82
2023/01/13 08:11:15;;;;;;;8.90;8.40;;;10.40;99.90;;;;;;4959083;28;20231;-83
2023/01/13 08:13:42;;;;;;;8.80;8.37;;;10.40;99.90;;;;;;4959389;28;20253;-79
2023/01/13 08:16:11;;;;;;;9.07;8.57;;;10.40;99.90;;;;;;4962257;28;20568;-80
2023/01/13 08:18:39;;;;;;;8.97;8.47;;;10.50;99.90;;;;;;4964520;28;20195;-83
2023/01/13 08:21:08;;;;;;;9.10;8.60;;;10.50;99.90;;;;;;4965112;28;20241;-78
2023/01/13 08:23:36;;;;;;;9.30;8.80;;;10.50;99.90;;;;;;4966409;28;20255;-78
2023/01/13 08:26:05;;;;;;;9.13;8.63;;;10.50;99.90;;;;;;4966843;28;20785;-77
2023/01/13 08:28:32;;;;;;;9.20;8.70;;;10.60;99.90;;;;;;4963457;28;20258;-78
2023/01/13 08:31:00;;;;;;;9.10;8.60;;;10.70;99.90;;;;;;4967663;28;20223;-77
2023/01/13 08:33:27;;;;;;;8.90;8.40;;;10.80;99.90;;;;;;4954378;28;20213;-79
2023/01/13 08:35:55;;;;;;;9.00;8.40;;;10.90;99.90;;;;;;4962061;28;20213;-82
2023/01/13 08:38:22;;;;;;;9.17;8.57;;;10.90;99.90;;;;;;4964174;28;20294;-78
2023/01/13 08:40:50;;;;;;;9.00;8.50;;;10.80;99.90;;;;;;4961073;28;20228;-79
2023/01/13 08:43:17;;;;;;;8.50;8.10;;;10.80;99.90;;;;;;4965091;28;20207;-79
2023/01/13 08:45:44;;;;;;;8.87;8.40;;;10.70;99.90;;;;;;4964504;28;20231;-83
2023/01/13 08:48:11;;;;;;;9.50;9.00;;;10.60;99.90;;;;;;4958582;28;20263;-76
2023/01/13 08:50:38;;;;;;;9.40;8.90;;;10.60;99.90;;;;;;4958373;28;20212;-78
2023/01/13 08:53:04;;;;;;;9.30;8.80;;;10.60;99.90;;;;;;4958212;28;20228;-78
2023/01/13 08:55:31;;;;;;;9.50;8.90;;;10.60;99.90;;;;;;4958306;28;20601;-78
2023/01/13 08:57:59;;;;;;;9.50;9.00;;;10.60;99.90;;;;;;4957997;28;20210;-78
2023/01/13 09:00:26;;;;;;;9.60;9.10;;;10.50;99.90;;;;;;4958100;28;20236;-88
2023/01/13 09:02:53;;;;;;;9.20;8.70;;;10.50;99.90;;;;;;4963300;28;20222;-82
2023/01/13 09:05:21;;;;;;;9.10;8.60;;;10.40;99.90;;;;;;4960450;28;20204;-83
2023/01/13 09:07:48;;;;;;;9.20;8.70;;;10.50;99.90;;;;;;4959148;28;20256;-84
2023/01/13 09:10:15;;;;;;;9.50;9.00;;;10.50;99.90;;;;;;4957228;28;20255;-84
2023/01/13 09:15:27;;;;;;;9.97;9.47;;;10.40;99.90;;;;;;4967500;28;20686;-84
2023/01/13 09:17:54;;;;;;;9.80;9.30;;;10.40;99.90;;;;;;4954494;28;20191;-78
2023/01/13 09:20:21;;;;;;;10.37;9.67;;;10.40;99.90;;;;;;4964019;28;20229;-78
2023/01/13 09:22:47;;;;;;;10.30;9.70;;;10.30;99.90;;;;;;4957742;28;20247;-79
2023/01/13 09:25:14;;;;;;;9.93;9.30;;;10.30;99.90;;;;;;4965753;28;20211;-79
2023/01/13 09:27:41;;;;;;;10.03;9.43;;;10.30;99.90;;;;;;4960974;28;20202;-79
2023/01/13 09:30:09;;;;;;;9.73;9.23;;;10.30;99.90;;;;;;4967088;28;20268;-79
2023/01/13 09:32:38;;;;;;;10.10;9.27;;;10.30;99.90;;;;;;4952058;28;20237;-84
2023/01/13 09:35:04;;;;;;;9.90;9.30;;;10.40;99.90;;;;;;4955845;28;20710;-83
2023/01/13 09:37:33;;;;;;;10.03;9.53;;;10.40;99.90;;;;;;4958371;28;20358;-83
2023/01/13 09:40:00;;;;;;;8.90;8.40;;;10.40;99.90;;;;;;4950546;28;20211;-79
2023/01/13 09:45:24;;;;;;;9.20;8.70;;;10.40;99.90;;;;;;4968021;28;20207;-79
2023/01/13 09:47:56;;;;;;;9.50;9.00;;;10.60;99.90;;;;;;4959772;28;20203;-79
2023/01/13 09:50:41;;;;;;;9.20;8.70;;;10.60;99.90;;;;;;4959100;28;20623;-79
2023/01/13 09:53:14;;;;;;;9.40;8.90;;;10.60;99.90;;;;;;4966561;28;20209;-80
2023/01/13 09:55:44;;;;;;;9.33;8.83;;;10.60;99.90;;;;;;4967543;28;20209;-79
2023/01/13 09:58:13;;;;;;;9.33;8.83;;;10.60;99.90;;;;;;4962522;28;20223;-79
2023/01/13 10:00:46;;;;;;;8.93;8.50;;;10.70;99.90;;;;;;4940411;28;20212;-78
2023/01/13 10:03:21;;;;;;;9.27;8.67;;;10.90;99.90;;;;;;4945543;28;20202;-78
2023/01/13 10:05:55;;;;;;;8.97;8.50;;;11.00;99.90;;;;;;4946518;28;20203;-79
2023/01/13 10:08:24;;;;;;;10.07;9.30;;;11.10;99.90;;;;;;4950934;28;20232;-78
2023/01/13 10:10:54;;;;;;;9.80;9.20;;;10.90;99.90;;;;;;4949290;28;20217;-78
2023/01/13 10:13:23;;;;;;;10.17;9.50;;;10.60;99.90;;;;;;4950661;28;20196;-79
2023/01/13 10:16:02;;;;;;;9.73;9.13;;;10.30;99.90;;;;;;4948871;28;20228;-79
2023/01/13 10:18:38;;;;;;;9.87;9.37;;;10.00;99.90;;;;;;4948635;28;20470;-79
2023/01/13 10:21:24;;;;;;;10.10;9.50;;;9.80;99.90;;;;;;4964401;28;20637;-78
2023/01/13 10:23:58;;;;;;;9.80;9.30;;;9.60;99.90;;;;;;4969461;28;20202;-79
2023/01/13 10:26:47;;;;;;;9.60;9.00;;;9.60;99.90;;;;;;4968825;28;20195;-78
2023/01/13 10:29:23;;;;;;;9.93;9.43;;;9.60;99.90;;;;;;4973107;28;20201;-78
2023/01/13 10:31:50;;;;;;;9.70;9.20;;;9.60;99.90;;;;;;4969146;28;20242;-78
2023/01/13 10:34:20;;;;;;;9.70;9.20;;;9.60;99.90;;;;;;4972134;28;20207;-78
2023/01/13 10:37:05;;;;;;;9.90;9.30;;;9.60;99.90;;;;;;4966679;28;20201;-78
2023/01/13 10:39:43;;;;;;;9.53;9.03;;;9.70;99.90;;;;;;4959637;28;20677;-78
2023/01/13 10:42:14;;;;;;;9.70;9.20;;;9.70;99.90;;;;;;4965052;28;20282;-77
2023/01/13 10:44:47;;;;;;;9.67;9.17;;;9.90;99.90;;;;;;4969602;28;20213;-79
2023/01/13 10:47:21;;;;;;;9.50;9.00;;;9.90;99.90;;;;;;4965568;28;20287;-76
2023/01/13 10:50:01;;;;;;;9.97;9.30;;;10.00;99.90;;;;;;4967983;28;20201;-78
2023/01/13 10:52:29;;;;;;;9.37;8.87;;;9.90;99.90;;;;;;4958585;28;20240;-79
2023/01/13 10:54:56;;;;;;;9.50;9.00;;;10.00;99.90;;;;;;4968553;28;20618;-78
2023/01/13 10:57:25;;;;;;;9.43;8.93;;;10.10;99.90;;;;;;4968003;28;20661;-78
2023/01/13 10:59:52;;;;;;;9.40;8.77;;;10.20;99.90;;;;;;4966560;28;20210;-78
2023/01/13 11:02:25;;;;;;;9.30;8.80;;;10.30;99.90;;;;;;4965996;28;20302;-81
2023/01/13 11:05:09;;;;;;;9.20;8.70;;;10.40;99.90;;;;;;4957648;28;20213;-84
2023/01/13 11:07:39;;;;;;;9.47;8.93;;;10.50;99.90;;;;;;4962744;28;20199;-84
2023/01/13 11:10:20;;;;;;;9.80;9.20;;;10.50;99.90;;;;;;4965433;28;20567;-84
2023/01/13 11:12:54;;;;;;;9.80;9.20;;;10.50;99.90;;;;;;4964172;28;20223;-78
2023/01/13 11:15:24;;;;;;;10.20;9.60;;;10.50;99.90;;;;;;4970068;28;20748;-79
2023/01/13 11:17:59;;;;;;;9.80;9.20;;;10.40;99.90;;;;;;4968731;28;20270;-78
2023/01/13 11:20:35;;;;;;;9.90;9.40;;;10.10;99.90;;;;;;4975588;28;20211;-84
2023/01/13 11:23:11;;;;;;;10.00;9.47;;;9.80;99.90;;;;;;4967210;28;20203;-82
2023/01/13 11:25:41;;;;;;;9.60;9.10;;;9.20;99.90;;;;;;4971864;28;20667;-82
2023/01/13 11:28:29;;;;;;;9.10;8.60;;;8.70;99.90;;;;;;4959334;28;20215;-83
2023/01/13 11:31:04;;;;;;;10.13;9.63;;;8.40;99.90;;;;;;4958575;28;20697;-83
2023/01/13 11:33:38;;;;;;;9.70;9.20;;;8.20;99.90;;;;;;4965816;28;20209;-84
2023/01/13 11:36:13;;;;;;;10.60;10.00;;;8.00;99.90;;;;;;4967733;28;20197;-84
2023/01/13 11:38:47;;;;;;;9.40;8.80;;;7.90;99.90;;;;;;4967177;28;20197;-84
2023/01/13 11:41:40;;;;;;;9.77;9.27;;;7.80;99.90;;;;;;4965203;28;20233;-85
2023/01/13 11:44:16;;;;;;;10.00;9.50;;;7.80;99.90;;;;;;4970799;28;20198;-84
2023/01/13 11:46:43;;;;;;;10.73;10.13;;;7.70;99.90;;;;;;4964763;28;20202;-84
2023/01/13 11:49:22;;;;;;;10.63;10.03;;;7.70;99.90;;;;;;4970607;28;20205;-85
2023/01/13 11:51:57;;;;;;;10.63;10.10;;;7.60;99.90;;;;;;4963560;28;20225;-84
2023/01/13 11:54:44;;;;;;;9.50;8.90;;;7.50;99.90;;;;;;4972379;28;20201;-83
2023/01/13 11:57:34;;;;;;;9.10;8.60;;;7.30;99.90;;;;;;4939315;29;20561;-83
2023/01/13 12:00:26;;;;;;;10.70;9.90;;;7.30;99.90;;;;;;4954188;29;20214;-83
2023/01/13 12:03:16;;;;;;;10.90;10.20;;;7.30;99.90;;;;;;4954041;28;20209;-83
2023/01/13 12:05:58;;;;;;;11.13;10.43;;;7.10;99.90;;;;;;4949017;28;20198;-84
2023/01/13 12:08:41;;;;;;;11.30;10.60;;;7.10;99.90;;;;;;4967757;28;20202;-87
2023/01/13 12:11:16;;;;;;;11.70;11.10;;;7.10;99.90;;;;;;4960216;28;20841;-81
2023/01/13 12:14:05;;;;;;;11.60;10.90;;;7.10;99.90;;;;;;4965346;28;20251;-83
2023/01/13 12:16:32;;;;;;;12.07;11.30;;;7.10;99.90;;;;;;4961055;28;20220;-85
2023/01/13 12:19:26;;;;;;;10.93;10.33;;;7.20;99.90;;;;;;4955570;28;20198;-83
2023/01/13 12:22:02;;;;;;;10.30;9.70;;;7.40;99.90;;;;;;4952417;28;20215;-85
2023/01/13 12:24:35;;;;;;;9.60;9.10;;;7.50;99.90;;;;;;4959171;28;20197;-84
2023/01/13 12:27:13;;;;;;;9.63;9.13;;;7.60;99.90;;;;;;4960940;28;20195;-83
2023/01/13 12:29:40;;;;;;;9.50;8.90;;;7.70;99.90;;;;;;4960791;28;20353;-83
2023/01/13 12:32:12;;;;;;;9.43;8.83;;;7.80;99.90;;;;;;4966847;28;20269;-83
2023/01/13 12:34:49;;;;;;;9.30;8.80;;;7.90;99.90;;;;;;4965980;28;20260;-82
2023/01/13 12:37:23;;;;;;;9.30;8.70;;;8.00;99.90;;;;;;4962985;28;20214;-81
2023/01/13 12:40:01;;;;;;;9.30;8.80;;;8.00;99.90;;;;;;4961311;28;20229;-82
2023/01/13 12:45:27;;;;;;;9.93;9.07;;;7.90;99.90;;;;;;4963016;28;20277;-84
2023/01/13 12:47:55;;;;;;;9.30;8.80;;;7.80;99.90;;;;;;4964332;28;20202;-82
2023/01/13 12:50:41;;;;;;;9.80;9.20;;;7.60;99.90;;;;;;4956090;28;20199;-79
2023/01/13 12:53:30;;;;;;;10.10;9.40;;;7.50;99.90;;;;;;4956668;28;20261;-78
2023/01/13 12:56:35;;;;;;;9.80;9.20;;;7.40;99.90;;;;;;4953365;28;20203;-80
2023/01/13 12:59:47;;;;;;;10.27;9.30;;;7.50;99.90;;;;;;4942504;28;20262;-79
2023/01/13 13:02:28;;;;;;;10.10;9.50;;;7.60;99.90;;;;;;4944708;28;20238;-79
2023/01/13 13:04:57;;;;;;;10.90;9.80;;;7.60;99.90;;;;;;4940245;28;20203;-79
2023/01/13 13:07:33;;;;;;;10.87;10.17;;;7.60;99.90;;;;;;4943284;28;20277;-79
2023/01/13 13:10:04;;;;;;;9.97;9.37;;;7.60;99.90;;;;;;4942564;28;20512;-80
2023/01/13 13:15:43;;;;;;;10.67;9.70;;;7.70;99.90;;;;;;4959406;28;20559;-79
2023/01/13 13:18:25;;;;;;;10.97;10.07;;;7.80;99.90;;;;;;4950500;28;20206;-79
2023/01/13 13:21:02;;;;;;;10.80;10.20;;;7.90;99.90;;;;;;4935613;28;20262;-79
2023/01/13 13:23:42;;;;;;;10.10;9.50;;;7.90;99.90;;;;;;4938158;28;20207;-79
2023/01/13 13:26:29;;;;;;;11.00;10.10;;;8.00;99.90;;;;;;4952161;28;20225;-80
2023/01/13 13:29:08;;;;;;;9.77;9.17;;;8.00;99.90;;;;;;4957274;28;20596;-79
2023/01/13 13:31:54;;;;;;;9.70;9.00;;;8.00;99.90;;;;;;4969153;28;20220;-79
2023/01/13 13:34:28;;;;;;;8.97;8.47;;;8.10;99.90;;;;;;4963693;28;20201;-80
2023/01/13 13:37:16;;;;;;;10.13;9.27;;;8.10;99.90;;;;;;4961803;28;20631;-79
2023/01/13 13:48:23;;;;;;;9.83;9.13;;;8.20;99.90;;;;;;4962957;28;20239;-79
2023/01/13 13:50:56;;;;;;;9.10;8.60;;;8.20;99.90;;;;;;4962571;28;20217;-79
2023/01/13 13:53:25;;;;;;;9.63;9.00;;;8.10;99.90;;;;;;4964487;28;20210;-78
2023/01/13 13:55:56;;;;;;;8.97;8.47;;;8.00;99.90;;;;;;4965717;28;20205;-79
2023/01/13 13:58:25;;;;;;;9.50;8.90;;;8.10;99.90;;;;;;4961312;28;20216;-79
2023/01/13 14:00:52;;;;;;;9.60;8.90;;;8.20;99.90;;;;;;4966039;28;20312;-77
2023/01/13 14:03:25;;;;;;;9.10;8.60;;;8.20;99.90;;;;;;4962647;28;20202;-78
2023/01/13 14:05:57;;;;;;;9.83;9.13;;;8.30;99.90;;;;;;4958335;28;20229;-77
2023/01/13 14:08:25;;;;;;;9.53;8.90;;;8.40;99.90;;;;;;4959449;28;20754;-77
2023/01/13 14:10:53;;;;;;;11.13;9.90;;;8.50;99.90;;;;;;4956478;28;20229;-77
2023/01/13 14:13:22;;;;;;;10.83;9.77;;;8.60;99.90;;;;;;4961699;28;20206;-78
2023/01/13 14:15:54;;;;;;;10.60;9.80;;;8.60;99.90;;;;;;4965565;28;20201;-77
2023/01/13 14:18:21;;;;;;;10.50;9.80;;;8.50;99.90;;;;;;4969381;28;20238;-77
2023/01/13 14:20:55;;;;;;;9.90;9.30;;;8.60;99.90;;;;;;4967018;28;20230;-78
2023/01/13 14:23:28;;;;;;;10.27;9.57;;;8.60;99.90;;;;;;4970109;28;20334;-77
2023/01/13 14:25:55;;;;;;;10.60;9.80;;;8.70;99.90;;;;;;4966433;28;20203;-78
2023/01/13 14:28:25;;;;;;;10.83;9.97;;;8.80;99.90;;;;;;4969523;28;20229;-77
2023/01/13 14:30:53;;;;;;;10.63;9.93;;;8.90;99.90;;;;;;4954592;28;20274;-80
2023/01/13 14:33:34;;;;;;;10.50;9.70;;;9.00;99.90;;;;;;4951514;28;20199;-80
2023/01/13 14:36:21;;;;;;;9.93;9.20;;;9.10;99.90;;;;;;4957153;28;20682;-82
2023/01/13 14:38:50;;;;;;;9.40;8.80;;;9.20;99.90;;;;;;4956109;28;20250;-81
2023/01/13 14:41:23;;;;;;;10.27;9.57;;;9.30;99.90;;;;;;4972357;28;20315;-82
2023/01/13 14:43:58;;;;;;;9.70;9.00;;;9.30;99.90;;;;;;4971368;28;20203;-82
2023/01/13 14:46:25;;;;;;;9.33;8.60;;;9.30;99.90;;;;;;4970637;28;20199;-83
2023/01/13 14:48:59;;;;;;;10.10;9.40;;;9.30;99.90;;;;;;4970369;28;20215;-81
2023/01/13 14:51:29;;;;;;;10.40;9.60;;;9.30;99.90;;;;;;4972444;28;20211;-83
2023/01/13 14:53:56;;;;;;;9.97;9.30;;;9.30;99.90;;;;;;4969839;28;20632;-80
2023/01/13 14:56:50;;;;;;;10.27;9.47;;;9.30;99.90;;;;;;4965920;28;20212;-78
2023/01/13 14:59:54;;;;;;;9.50;8.77;;;9.30;99.90;;;;;;4948382;28;20214;-78
2023/01/13 15:02:41;;;;;;;9.30;8.70;;;9.20;99.90;;;;;;4965941;28;20226;-78
2023/01/13 15:05:32;;;;;;;9.43;8.80;;;9.20;99.90;;;;;;4965766;28;20207;-78
2023/01/13 15:08:04;;;;;;;9.87;9.10;;;9.10;99.90;;;;;;4965414;28;20621;-78
2023/01/13 15:10:33;;;;;;;9.60;8.90;;;9.10;99.90;;;;;;4962718;28;20206;-77
2023/01/13 15:13:03;;;;;;;10.20;9.50;;;9.00;99.90;;;;;;4964385;28;20727;-77
2023/01/13 15:15:32;;;;;;;9.67;9.07;;;8.90;99.90;;;;;;4964397;28;20214;-76
2023/01/13 15:18:00;;;;;;;10.60;9.70;;;8.80;99.90;;;;;;4962813;28;20265;-78
2023/01/13 15:20:27;;;;;;;9.90;9.20;;;8.70;99.90;;;;;;4971446;28;20202;-78
2023/01/13 15:22:56;;;;;;;10.07;9.30;;;8.60;99.90;;;;;;4962422;28;20313;-77
2023/01/13 15:25:24;;;;;;;10.50;9.80;;;8.50;99.90;;;;;;4961592;28;20245;-78
2023/01/13 15:27:52;;;;;;;10.43;9.70;;;8.40;99.90;;;;;;4956380;28;20194;-77
2023/01/13 15:30:23;;;;;;;10.20;9.37;;;8.30;99.90;;;;;;4959917;28;20209;-77
2023/01/13 15:32:51;;;;;;;10.20;9.50;;;8.20;99.90;;;;;;4965306;28;20205;-78
2023/01/13 15:35:20;;;;;;;9.90;9.30;;;8.20;99.90;;;;;;4965801;28;20338;-77
2023/01/13 15:37:48;;;;;;;10.27;9.57;;;8.10;99.90;;;;;;4969027;28;20202;-77
2023/01/13 15:40:17;;;;;;;10.00;9.30;;;8.00;99.90;;;;;;4960145;28;20206;-78
2023/01/13 15:48:15;;;;;;;10.87;9.97;;;7.80;99.90;;;;;;4959851;28;20245;-81
2023/01/13 15:50:42;;;;;;;10.03;9.43;;;7.70;99.90;;;;;;4969028;28;20272;-81
2023/01/13 15:53:11;;;;;;;10.23;9.53;;;7.70;99.90;;;;;;4969466;28;20236;-80
2023/01/13 15:55:40;;;;;;;10.17;9.47;;;7.60;99.90;;;;;;4971985;28;20230;-82
2023/01/13 15:58:10;;;;;;;10.20;9.40;;;7.60;99.90;;;;;;4968784;28;20197;-84
2023/01/13 16:00:37;;;;;;;10.73;9.93;;;7.60;99.90;;;;;;4964157;28;20230;-82
2023/01/13 16:03:04;;;;;;;10.30;9.50;;;7.50;99.90;;;;;;4955454;28;20286;-75
2023/01/13 16:05:31;;;;;;;10.20;9.40;;;7.40;99.90;;;;;;4949442;28;20261;-76
2023/01/13 16:07:57;;;;;;;11.67;9.93;;;7.30;99.90;;;;;;4947219;28;20199;-77
2023/01/13 16:10:28;;;;;;;10.67;9.87;;;7.30;99.90;;;;;;4941302;28;20277;-75
2023/01/13 16:12:55;;;;;;;10.07;9.37;;;7.20;99.90;;;;;;4939095;28;20199;-77
2023/01/13 16:15:24;;;;;;;10.27;9.57;;;7.20;99.90;;;;;;4940318;28;20230;-76
2023/01/13 16:17:55;;;;;;;10.50;9.70;;;7.20;99.90;;;;;;4939779;28;20297;-75
2023/01/13 16:20:22;;;;;;;10.30;9.60;;;7.20;99.90;;;;;;4951199;28;20209;-77
2023/01/13 16:22:49;;;;;;;10.60;9.80;;;7.10;99.90;;;;;;4962091;28;20662;-77
2023/01/13 16:25:17;;;;;;;9.93;9.23;;;7.10;99.90;;;;;;4965969;28;20202;-77
2023/01/13 16:27:44;;;;;;;10.37;9.50;;;7.10;99.90;;;;;;4968232;28;20198;-77
2023/01/13 16:30:21;;;;;;;10.27;9.57;;;7.10;99.90;;;;;;4956142;28;20218;-76
2023/01/13 16:32:49;;;;;;;10.60;9.70;;;7.10;99.90;;;;;;4963008;28;20289;-77
2023/01/13 16:35:17;;;;;;;10.47;9.67;;;7.20;99.90;;;;;;4966229;28;20202;-76
2023/01/13 16:37:46;;;;;;;10.30;9.70;;;7.20;99.90;;;;;;4970121;28;20682;-77
2023/01/13 16:40:21;;;;;;;10.07;9.43;;;7.20;99.90;;;;;;4964283;28;20250;-76
2023/01/13 16:42:48;;;;;;;10.47;9.87;;;7.30;99.90;;;;;;4967315;28;20233;-77
2023/01/13 16:45:15;;;;;;;10.53;9.70;;;7.20;99.90;;;;;;4963779;28;20195;-77
2023/01/13 16:47:43;;;;;;;10.40;9.50;;;7.20;99.90;;;;;;4966157;28;20252;-82
2023/01/13 16:50:20;;;;;;;10.17;9.47;;;7.20;99.90;;;;;;4964352;28;20633;-82
2023/01/13 16:52:47;;;;;;;10.50;9.80;;;7.20;99.90;;;;;;4965336;28;20224;-79
2023/01/13 16:55:14;;;;;;;11.03;10.17;;;7.10;99.90;;;;;;4962149;28;20678;-81
2023/01/13 16:57:41;;;;;;;11.50;10.70;;;7.10;99.90;;;;;;4964515;28;20235;-82
2023/01/13 17:00:10;;;;;;;10.90;9.90;;;7.10;99.90;;;;;;4963563;28;20211;-80
2023/01/13 17:02:37;;;;;;;10.70;10.00;;;7.00;99.90;;;;;;4964209;28;20250;-81
2023/01/13 17:05:05;;;;;;;10.60;9.70;;;7.00;99.90;;;;;;4964080;28;20200;-81
2023/01/13 17:07:33;;;;;;;11.03;10.13;;;7.00;99.90;;;;;;4965014;28;20735;-82